sensor_id;sensor_type;location;lat;lon;timestamp;temperature;humidity
56869;DHT22;42754;0.000;0.000;2022-07-10T00:01:31;15.50;99.90
56869;DHT22;42754;0.000;0.000;2022-07-10T00:03:56;15.60;99.90
56869;DHT22;42754;0.000;0.000;2022-07-10T00:06:22;15.60;99.90
56869;DHT22;42754;0.000;0.000;2022-07-10T00:08:47;15.60;99.90
56869;DHT22;42754;0.000;0.000;2022-07-10T00:11:14;15.50;99.90
56869;DHT22;42754;0.000;0.000;2022-07-10T00:13:39;15.40;99.90
56869;DHT22;42754;0.000;0.000;2022-07-10T00:16:05;15.40;99.90
56869;DHT22;42754;0.000;0.000;2022-07-10T00:18:31;15.50;99.90
56869;DHT22;42754;0.000;0.000;2022-07-10T00:20:57;15.50;99.90
56869;DHT22;42754;0.000;0.000;2022-07-10T00:23:22;15.40;99.90
56869;DHT22;42754;0.000;0.000;2022-07-10T00:25:48;15.50;99.90
56869;DHT22;42754;0.000;0.000;2022-07-10T00:28:14;15.40;99.90
56869;DHT22;42754;0.000;0.000;2022-07-10T00:30:40;15.40;99.90
56869;DHT22;42754;0.000;0.000;2022-07-10T00:33:07;15.30;99.90
56869;DHT22;42754;0.000;0.000;2022-07-10T00:35:32;15.20;99.90
56869;DHT22;42754;0.000;0.000;2022-07-10T00:37:58;15.20;99.90
56869;DHT22;42754;0.000;0.000;2022-07-10T00:40:23;15.30;99.90
56869;DHT22;42754;0.000;0.000;2022-07-10T00:42:49;15.30;99.90
56869;DHT22;42754;0.000;0.000;2022-07-10T00:45:15;15.30;99.90
56869;DHT22;42754;0.000;0.000;2022-07-10T00:47:41;15.20;99.90
56869;DHT22;42754;0.000;0.000;2022-07-10T00:50:06;15.20;99.90
56869;DHT22;42754;0.000;0.000;2022-07-10T00:52:33;15.20;99.90
56869;DHT22;42754;0.000;0.000;2022-07-10T00:55:05;15.20;99.90
56869;DHT22;42754;0.000;0.000;2022-07-10T00:57:31;15.20;99.90
56869;DHT22;42754;0.000;0.000;2022-07-10T00:59:58;15.10;99.90
56869;DHT22;42754;0.000;0.000;2022-07-10T01:02:23;15.10;99.90
56869;DHT22;42754;0.000;0.000;2022-07-10T01:04:49;15.20;99.90
56869;DHT22;42754;0.000;0.000;2022-07-10T01:07:15;15.10;99.90
56869;DHT22;42754;0.000;0.000;2022-07-10T01:09:41;15.10;99.90
56869;DHT22;42754;0.000;0.000;2022-07-10T01:12:08;15.10;99.90
56869;DHT22;42754;0.000;0.000;2022-07-10T01:14:35;15.10;99.90
56869;DHT22;42754;0.000;0.000;2022-07-10T01:17:04;15.10;99.90
56869;DHT22;42754;0.000;0.000;2022-07-10T01:19:30;15.10;99.90
56869;DHT22;42754;0.000;0.000;2022-07-10T01:21:55;15.00;99.90
56869;DHT22;42754;0.000;0.000;2022-07-10T01:24:21;15.10;99.90
56869;DHT22;42754;0.000;0.000;2022-07-10T01:26:47;15.00;99.90
56869;DHT22;42754;0.000;0.000;2022-07-10T01:29:12;14.90;99.90
56869;DHT22;42754;0.000;0.000;2022-07-10T01:31:38;14.90;99.90
56869;DHT22;42754;0.000;0.000;2022-07-10T01:34:06;14.90;99.90
56869;DHT22;42754;0.000;0.000;2022-07-10T01:36:33;14.90;99.90
56869;DHT22;42754;0.000;0.000;2022-07-10T01:38:59;14.90;99.90
56869;DHT22;42754;0.000;0.000;2022-07-10T01:41:26;14.90;99.90
56869;DHT22;42754;0.000;0.000;2022-07-10T01:43:52;14.90;99.90
56869;DHT22;42754;0.000;0.000;2022-07-10T01:46:17;14.80;99.90
56869;DHT22;42754;0.000;0.000;2022-07-10T01:48:43;14.80;99.90
56869;DHT22;42754;0.000;0.000;2022-07-10T01:51:10;14.70;99.90
56869;DHT22;42754;0.000;0.000;2022-07-10T01:53:39;14.70;99.90
56869;DHT22;42754;0.000;0.000;2022-07-10T01:56:07;14.80;99.90
56869;DHT22;42754;0.000;0.000;2022-07-10T01:58:33;14.80;99.90
56869;DHT22;42754;0.000;0.000;2022-07-10T02:01:00;14.70;99.90
56869;DHT22;42754;0.000;0.000;2022-07-10T02:03:25;14.70;99.90
56869;DHT22;42754;0.000;0.000;2022-07-10T02:06:09;14.60;99.90
56869;DHT22;42754;0.000;0.000;2022-07-10T02:08:35;14.60;99.90
56869;DHT22;42754;0.000;0.000;2022-07-10T02:11:01;14.50;99.90
56869;DHT22;42754;0.000;0.000;2022-07-10T02:13:27;14.50;99.90
56869;DHT22;42754;0.000;0.000;2022-07-10T02:15:54;14.50;99.90
56869;DHT22;42754;0.000;0.000;2022-07-10T02:18:20;14.50;99.90
56869;DHT22;42754;0.000;0.000;2022-07-10T02:20:46;14.50;99.90
56869;DHT22;42754;0.000;0.000;2022-07-10T02:23:12;14.50;99.90
56869;DHT22;42754;0.000;0.000;2022-07-10T02:25:37;14.50;99.90
56869;DHT22;42754;0.000;0.000;2022-07-10T02:28:03;14.60;99.90
56869;DHT22;42754;0.000;0.000;2022-07-10T02:30:29;14.60;99.90
56869;DHT22;42754;0.000;0.000;2022-07-10T02:32:55;14.50;99.90
56869;DHT22;42754;0.000;0.000;2022-07-10T02:35:21;14.50;99.90
56869;DHT22;42754;0.000;0.000;2022-07-10T02:37:46;14.40;99.90
56869;DHT22;42754;0.000;0.000;2022-07-10T02:40:12;14.50;99.90
56869;DHT22;42754;0.000;0.000;2022-07-10T02:42:37;14.40;99.90
56869;DHT22;42754;0.000;0.000;2022-07-10T02:45:03;14.40;99.90
56869;DHT22;42754;0.000;0.000;2022-07-10T02:47:29;14.40;99.90
56869;DHT22;42754;0.000;0.000;2022-07-10T02:49:55;14.40;99.90
56869;DHT22;42754;0.000;0.000;2022-07-10T02:52:20;14.40;99.90
56869;DHT22;42754;0.000;0.000;2022-07-10T02:54:46;14.40;99.90
56869;DHT22;42754;0.000;0.000;2022-07-10T02:57:12;14.30;99.90
56869;DHT22;42754;0.000;0.000;2022-07-10T02:59:37;14.30;99.90
56869;DHT22;42754;0.000;0.000;2022-07-10T03:02:03;14.20;99.90
56869;DHT22;42754;0.000;0.000;2022-07-10T03:04:29;14.10;99.90
56869;DHT22;42754;0.000;0.000;2022-07-10T03:06:54;14.20;99.90
56869;DHT22;42754;0.000;0.000;2022-07-10T03:09:20;14.10;99.90
56869;DHT22;42754;0.000;0.000;2022-07-10T03:11:46;14.20;99.90
56869;DHT22;42754;0.000;0.000;2022-07-10T03:14:11;14.20;99.90
56869;DHT22;42754;0.000;0.000;2022-07-10T03:16:37;14.20;99.90
56869;DHT22;42754;0.000;0.000;2022-07-10T03:19:03;14.20;99.90
56869;DHT22;42754;0.000;0.000;2022-07-10T03:21:28;14.20;99.90
56869;DHT22;42754;0.000;0.000;2022-07-10T03:23:55;14.20;99.90
56869;DHT22;42754;0.000;0.000;2022-07-10T03:26:21;14.20;99.90
56869;DHT22;42754;0.000;0.000;2022-07-10T03:28:46;14.20;99.90
56869;DHT22;42754;0.000;0.000;2022-07-10T03:31:12;14.20;99.90
56869;DHT22;42754;0.000;0.000;2022-07-10T03:33:37;14.20;99.90
56869;DHT22;42754;0.000;0.000;2022-07-10T03:36:04;14.20;99.90
56869;DHT22;42754;0.000;0.000;2022-07-10T03:38:30;14.20;99.90
56869;DHT22;42754;0.000;0.000;2022-07-10T03:40:56;14.20;99.90
56869;DHT22;42754;0.000;0.000;2022-07-10T03:43:22;14.20;99.90
56869;DHT22;42754;0.000;0.000;2022-07-10T03:45:47;14.20;99.90
56869;DHT22;42754;0.000;0.000;2022-07-10T03:48:13;14.20;99.90
56869;DHT22;42754;0.000;0.000;2022-07-10T03:50:39;14.20;99.90
56869;DHT22;42754;0.000;0.000;2022-07-10T03:53:04;14.20;99.90
56869;DHT22;42754;0.000;0.000;2022-07-10T03:55:30;14.30;99.90
56869;DHT22;42754;0.000;0.000;2022-07-10T03:57:55;14.30;99.90
56869;DHT22;42754;0.000;0.000;2022-07-10T04:00:28;14.30;99.90
56869;DHT22;42754;0.000;0.000;2022-07-10T04:03:01;14.30;99.90
56869;DHT22;42754;0.000;0.000;2022-07-10T04:05:28;14.30;99.90
56869;DHT22;42754;0.000;0.000;2022-07-10T04:07:55;14.40;99.90
56869;DHT22;42754;0.000;0.000;2022-07-10T04:10:22;14.40;99.90
56869;DHT22;42754;0.000;0.000;2022-07-10T04:12:51;14.30;99.90
56869;DHT22;42754;0.000;0.000;2022-07-10T04:15:17;14.30;99.90
56869;DHT22;42754;0.000;0.000;2022-07-10T04:17:43;14.40;99.90
56869;DHT22;42754;0.000;0.000;2022-07-10T04:20:09;14.40;99.90
56869;DHT22;42754;0.000;0.000;2022-07-10T04:22:35;14.40;99.90
56869;DHT22;42754;0.000;0.000;2022-07-10T04:25:01;14.40;99.90
56869;DHT22;42754;0.000;0.000;2022-07-10T04:27:26;14.40;99.90
56869;DHT22;42754;0.000;0.000;2022-07-10T04:29:52;14.50;99.90
56869;DHT22;42754;0.000;0.000;2022-07-10T04:32:18;14.40;99.90
56869;DHT22;42754;0.000;0.000;2022-07-10T04:34:43;14.40;99.90
56869;DHT22;42754;0.000;0.000;2022-07-10T04:37:09;14.40;99.90
56869;DHT22;42754;0.000;0.000;2022-07-10T04:39:36;14.40;99.90
56869;DHT22;42754;0.000;0.000;2022-07-10T04:42:03;14.40;99.90
56869;DHT22;42754;0.000;0.000;2022-07-10T04:44:29;14.50;99.90
56869;DHT22;42754;0.000;0.000;2022-07-10T04:46:55;14.60;99.90
56869;DHT22;42754;0.000;0.000;2022-07-10T04:49:21;14.60;99.90
56869;DHT22;42754;0.000;0.000;2022-07-10T04:51:47;14.50;99.90
56869;DHT22;42754;0.000;0.000;2022-07-10T04:54:12;14.60;99.90
56869;DHT22;42754;0.000;0.000;2022-07-10T04:56:38;14.60;99.90
56869;DHT22;42754;0.000;0.000;2022-07-10T04:59:04;14.60;99.90
56869;DHT22;42754;0.000;0.000;2022-07-10T05:01:29;14.60;99.90
56869;DHT22;42754;0.000;0.000;2022-07-10T05:03:55;14.70;99.90
56869;DHT22;42754;0.000;0.000;2022-07-10T05:06:21;14.70;99.90
56869;DHT22;42754;0.000;0.000;2022-07-10T05:08:46;14.70;99.90
56869;DHT22;42754;0.000;0.000;2022-07-10T05:11:12;14.70;99.90
56869;DHT22;42754;0.000;0.000;2022-07-10T05:13:38;14.70;99.90
56869;DHT22;42754;0.000;0.000;2022-07-10T05:16:04;14.70;99.90
56869;DHT22;42754;0.000;0.000;2022-07-10T05:18:30;14.70;99.90
56869;DHT22;42754;0.000;0.000;2022-07-10T05:20:56;14.70;99.90
56869;DHT22;42754;0.000;0.000;2022-07-10T05:23:21;14.70;99.90
56869;DHT22;42754;0.000;0.000;2022-07-10T05:25:47;14.70;99.90
56869;DHT22;42754;0.000;0.000;2022-07-10T05:28:14;14.80;99.90
56869;DHT22;42754;0.000;0.000;2022-07-10T05:30:40;14.80;99.90
56869;DHT22;42754;0.000;0.000;2022-07-10T05:33:06;14.80;99.90
56869;DHT22;42754;0.000;0.000;2022-07-10T05:35:32;14.80;99.90
56869;DHT22;42754;0.000;0.000;2022-07-10T05:37:57;14.90;99.90
56869;DHT22;42754;0.000;0.000;2022-07-10T05:40:23;14.90;99.90
56869;DHT22;42754;0.000;0.000;2022-07-10T05:42:49;14.90;99.90
56869;DHT22;42754;0.000;0.000;2022-07-10T05:45:14;14.90;99.90
56869;DHT22;42754;0.000;0.000;2022-07-10T05:47:40;15.00;99.90
56869;DHT22;42754;0.000;0.000;2022-07-10T05:50:06;15.10;99.90
56869;DHT22;42754;0.000;0.000;2022-07-10T05:52:31;15.10;99.90
56869;DHT22;42754;0.000;0.000;2022-07-10T05:54:57;15.20;99.90
56869;DHT22;42754;0.000;0.000;2022-07-10T05:57:23;15.20;99.90
56869;DHT22;42754;0.000;0.000;2022-07-10T05:59:49;15.30;99.90
56869;DHT22;42754;0.000;0.000;2022-07-10T06:02:15;15.30;99.90
56869;DHT22;42754;0.000;0.000;2022-07-10T06:04:41;15.30;99.90
56869;DHT22;42754;0.000;0.000;2022-07-10T06:07:07;15.50;99.90
56869;DHT22;42754;0.000;0.000;2022-07-10T06:09:34;15.60;99.90
56869;DHT22;42754;0.000;0.000;2022-07-10T06:11:59;15.60;99.90
56869;DHT22;42754;0.000;0.000;2022-07-10T06:14:25;15.60;99.90
56869;DHT22;42754;0.000;0.000;2022-07-10T06:16:51;15.60;99.90
56869;DHT22;42754;0.000;0.000;2022-07-10T06:19:16;15.60;99.90
56869;DHT22;42754;0.000;0.000;2022-07-10T06:21:43;15.60;99.90
56869;DHT22;42754;0.000;0.000;2022-07-10T06:24:09;15.60;99.90
56869;DHT22;42754;0.000;0.000;2022-07-10T06:26:35;15.60;99.90
56869;DHT22;42754;0.000;0.000;2022-07-10T06:29:00;15.70;99.90
56869;DHT22;42754;0.000;0.000;2022-07-10T06:31:26;15.70;99.90
56869;DHT22;42754;0.000;0.000;2022-07-10T06:33:52;15.60;99.90
56869;DHT22;42754;0.000;0.000;2022-07-10T06:36:18;15.60;99.90
56869;DHT22;42754;0.000;0.000;2022-07-10T06:38:43;15.50;99.90
56869;DHT22;42754;0.000;0.000;2022-07-10T06:41:10;15.50;99.90
56869;DHT22;42754;0.000;0.000;2022-07-10T06:43:35;15.50;99.90
56869;DHT22;42754;0.000;0.000;2022-07-10T06:46:01;15.60;99.90
56869;DHT22;42754;0.000;0.000;2022-07-10T06:48:27;15.60;99.90
56869;DHT22;42754;0.000;0.000;2022-07-10T06:50:53;15.60;99.90
56869;DHT22;42754;0.000;0.000;2022-07-10T06:53:18;15.50;99.90
56869;DHT22;42754;0.000;0.000;2022-07-10T06:55:50;15.50;99.90
56869;DHT22;42754;0.000;0.000;2022-07-10T06:58:16;15.50;99.90
56869;DHT22;42754;0.000;0.000;2022-07-10T07:00:41;15.50;99.90
56869;DHT22;42754;0.000;0.000;2022-07-10T07:03:07;15.40;99.90
56869;DHT22;42754;0.000;0.000;2022-07-10T07:05:32;15.40;99.90
56869;DHT22;42754;0.000;0.000;2022-07-10T07:07:58;15.40;99.90
56869;DHT22;42754;0.000;0.000;2022-07-10T07:10:24;15.30;99.90
56869;DHT22;42754;0.000;0.000;2022-07-10T07:12:49;15.30;99.90
56869;DHT22;42754;0.000;0.000;2022-07-10T07:15:15;15.30;99.90
56869;DHT22;42754;0.000;0.000;2022-07-10T07:17:42;15.30;99.90
56869;DHT22;42754;0.000;0.000;2022-07-10T07:20:39;15.30;99.90
56869;DHT22;42754;0.000;0.000;2022-07-10T07:23:24;15.30;99.90
56869;DHT22;42754;0.000;0.000;2022-07-10T07:25:49;15.30;99.90
56869;DHT22;42754;0.000;0.000;2022-07-10T07:28:16;15.30;99.90
56869;DHT22;42754;0.000;0.000;2022-07-10T07:30:43;15.30;99.90
56869;DHT22;42754;0.000;0.000;2022-07-10T07:33:09;15.30;99.90
56869;DHT22;42754;0.000;0.000;2022-07-10T07:35:34;15.30;99.90
56869;DHT22;42754;0.000;0.000;2022-07-10T07:38:01;15.30;99.90
56869;DHT22;42754;0.000;0.000;2022-07-10T07:40:27;15.30;99.90
56869;DHT22;42754;0.000;0.000;2022-07-10T07:42:54;15.30;99.90
56869;DHT22;42754;0.000;0.000;2022-07-10T07:45:20;15.40;99.90
56869;DHT22;42754;0.000;0.000;2022-07-10T07:47:51;15.40;99.90
56869;DHT22;42754;0.000;0.000;2022-07-10T07:50:19;15.40;99.90
56869;DHT22;42754;0.000;0.000;2022-07-10T07:52:45;15.50;99.90
56869;DHT22;42754;0.000;0.000;2022-07-10T07:55:14;15.50;99.90
56869;DHT22;42754;0.000;0.000;2022-07-10T07:57:41;15.50;99.90
56869;DHT22;42754;0.000;0.000;2022-07-10T08:00:08;15.60;99.90
56869;DHT22;42754;0.000;0.000;2022-07-10T08:02:35;15.70;99.90
56869;DHT22;42754;0.000;0.000;2022-07-10T08:05:01;15.70;99.90
56869;DHT22;42754;0.000;0.000;2022-07-10T08:07:41;15.70;99.90
56869;DHT22;42754;0.000;0.000;2022-07-10T08:10:09;15.80;99.90
56869;DHT22;42754;0.000;0.000;2022-07-10T08:12:35;15.80;99.90
56869;DHT22;42754;0.000;0.000;2022-07-10T08:15:01;15.80;99.90
56869;DHT22;42754;0.000;0.000;2022-07-10T08:17:27;15.80;99.90
56869;DHT22;42754;0.000;0.000;2022-07-10T08:19:53;15.90;99.90
56869;DHT22;42754;0.000;0.000;2022-07-10T08:22:19;15.90;99.90
56869;DHT22;42754;0.000;0.000;2022-07-10T08:24:44;15.90;99.90
56869;DHT22;42754;0.000;0.000;2022-07-10T08:27:10;15.90;99.90
56869;DHT22;42754;0.000;0.000;2022-07-10T08:29:38;15.90;99.90
56869;DHT22;42754;0.000;0.000;2022-07-10T08:32:04;16.00;99.90
56869;DHT22;42754;0.000;0.000;2022-07-10T08:34:31;16.10;99.90
56869;DHT22;42754;0.000;0.000;2022-07-10T08:36:58;16.10;99.90
56869;DHT22;42754;0.000;0.000;2022-07-10T08:39:24;16.10;99.90
56869;DHT22;42754;0.000;0.000;2022-07-10T08:41:50;16.10;99.90
56869;DHT22;42754;0.000;0.000;2022-07-10T08:44:16;16.10;99.90
56869;DHT22;42754;0.000;0.000;2022-07-10T08:46:43;16.10;99.90
56869;DHT22;42754;0.000;0.000;2022-07-10T08:49:10;16.10;99.90
56869;DHT22;42754;0.000;0.000;2022-07-10T08:52:08;16.10;99.90
56869;DHT22;42754;0.000;0.000;2022-07-10T08:54:34;16.20;99.90
56869;DHT22;42754;0.000;0.000;2022-07-10T08:57:02;16.10;99.90
56869;DHT22;42754;0.000;0.000;2022-07-10T08:59:28;16.10;99.90
56869;DHT22;42754;0.000;0.000;2022-07-10T09:01:54;16.10;99.90
56869;DHT22;42754;0.000;0.000;2022-07-10T09:04:25;16.20;99.90
56869;DHT22;42754;0.000;0.000;2022-07-10T09:06:52;16.30;99.90
56869;DHT22;42754;0.000;0.000;2022-07-10T09:09:18;16.50;99.90
56869;DHT22;42754;0.000;0.000;2022-07-10T09:11:44;16.50;99.90
56869;DHT22;42754;0.000;0.000;2022-07-10T09:14:14;16.50;99.90
56869;DHT22;42754;0.000;0.000;2022-07-10T09:16:44;16.70;99.90
56869;DHT22;42754;0.000;0.000;2022-07-10T09:19:22;17.00;99.90
56869;DHT22;42754;0.000;0.000;2022-07-10T09:21:50;17.30;99.90
56869;DHT22;42754;0.000;0.000;2022-07-10T09:24:17;17.40;99.90
56869;DHT22;42754;0.000;0.000;2022-07-10T09:26:58;17.50;99.90
56869;DHT22;42754;0.000;0.000;2022-07-10T09:29:25;17.60;99.90
56869;DHT22;42754;0.000;0.000;2022-07-10T09:34:34;17.40;99.90
56869;DHT22;42754;0.000;0.000;2022-07-10T09:37:17;17.10;99.90
56869;DHT22;42754;0.000;0.000;2022-07-10T09:40:09;16.90;99.90
56869;DHT22;42754;0.000;0.000;2022-07-10T09:42:38;16.90;99.90
56869;DHT22;42754;0.000;0.000;2022-07-10T09:50:30;17.10;99.90
56869;DHT22;42754;0.000;0.000;2022-07-10T09:52:57;17.10;99.90
56869;DHT22;42754;0.000;0.000;2022-07-10T09:55:24;17.10;99.90
56869;DHT22;42754;0.000;0.000;2022-07-10T09:57:57;17.20;99.90
56869;DHT22;42754;0.000;0.000;2022-07-10T10:00:31;17.10;99.90
56869;DHT22;42754;0.000;0.000;2022-07-10T10:02:59;17.20;99.90
56869;DHT22;42754;0.000;0.000;2022-07-10T10:05:53;17.20;99.90
56869;DHT22;42754;0.000;0.000;2022-07-10T10:08:25;17.30;99.90
56869;DHT22;42754;0.000;0.000;2022-07-10T10:10:53;17.60;99.90
56869;DHT22;42754;0.000;0.000;2022-07-10T10:13:25;17.70;99.90
56869;DHT22;42754;0.000;0.000;2022-07-10T10:15:54;17.70;99.90
56869;DHT22;42754;0.000;0.000;2022-07-10T10:18:21;17.80;99.90
56869;DHT22;42754;0.000;0.000;2022-07-10T10:20:48;18.00;99.90
56869;DHT22;42754;0.000;0.000;2022-07-10T10:23:16;18.00;99.90
56869;DHT22;42754;0.000;0.000;2022-07-10T10:25:57;18.10;99.90
56869;DHT22;42754;0.000;0.000;2022-07-10T10:28:24;18.10;99.90
56869;DHT22;42754;0.000;0.000;2022-07-10T10:30:53;18.00;99.90
56869;DHT22;42754;0.000;0.000;2022-07-10T10:36:01;18.10;99.90
56869;DHT22;42754;0.000;0.000;2022-07-10T10:41:26;17.80;99.90
56869;DHT22;42754;0.000;0.000;2022-07-10T10:49:20;17.60;99.90
56869;DHT22;42754;0.000;0.000;2022-07-10T10:52:10;17.70;99.90
56869;DHT22;42754;0.000;0.000;2022-07-10T10:57:20;17.70;99.90
56869;DHT22;42754;0.000;0.000;2022-07-10T10:59:53;17.60;99.90
56869;DHT22;42754;0.000;0.000;2022-07-10T11:02:26;17.70;99.90
56869;DHT22;42754;0.000;0.000;2022-07-10T11:05:38;17.70;99.90
56869;DHT22;42754;0.000;0.000;2022-07-10T11:10:26;18.50;99.90
56869;DHT22;42754;0.000;0.000;2022-07-10T11:13:03;18.90;99.90
56869;DHT22;42754;0.000;0.000;2022-07-10T11:15:30;19.20;99.90
56869;DHT22;42754;0.000;0.000;2022-07-10T11:18:19;19.30;99.90
56869;DHT22;42754;0.000;0.000;2022-07-10T11:20:49;19.70;99.90
56869;DHT22;42754;0.000;0.000;2022-07-10T11:28:51;19.90;99.90
56869;DHT22;42754;0.000;0.000;2022-07-10T11:31:21;20.10;99.90
56869;DHT22;42754;0.000;0.000;2022-07-10T11:33:49;20.20;99.90
56869;DHT22;42754;0.000;0.000;2022-07-10T11:36:26;20.30;99.90
56869;DHT22;42754;0.000;0.000;2022-07-10T11:39:02;20.20;99.90
56869;DHT22;42754;0.000;0.000;2022-07-10T11:41:28;20.10;99.90
56869;DHT22;42754;0.000;0.000;2022-07-10T11:46:23;19.70;99.90
56869;DHT22;42754;0.000;0.000;2022-07-10T11:48:50;19.60;99.90
56869;DHT22;42754;0.000;0.000;2022-07-10T11:51:28;19.60;99.90
56869;DHT22;42754;0.000;0.000;2022-07-10T11:54:00;19.80;99.90
56869;DHT22;42754;0.000;0.000;2022-07-10T11:56:28;19.80;99.90
56869;DHT22;42754;0.000;0.000;2022-07-10T11:58:55;19.60;99.90
56869;DHT22;42754;0.000;0.000;2022-07-10T12:01:21;19.40;99.90
56869;DHT22;42754;0.000;0.000;2022-07-10T12:04:08;19.20;99.90
56869;DHT22;42754;0.000;0.000;2022-07-10T12:06:36;19.00;99.90
56869;DHT22;42754;0.000;0.000;2022-07-10T12:09:07;18.90;99.90
56869;DHT22;42754;0.000;0.000;2022-07-10T12:11:33;18.70;99.90
56869;DHT22;42754;0.000;0.000;2022-07-10T12:16:44;19.20;99.90
56869;DHT22;42754;0.000;0.000;2022-07-10T12:19:12;19.50;99.90
56869;DHT22;42754;0.000;0.000;2022-07-10T12:21:39;19.70;99.90
56869;DHT22;42754;0.000;0.000;2022-07-10T12:24:07;19.80;99.90
56869;DHT22;42754;0.000;0.000;2022-07-10T12:26:38;19.90;99.90
56869;DHT22;42754;0.000;0.000;2022-07-10T12:29:04;19.70;99.90
56869;DHT22;42754;0.000;0.000;2022-07-10T12:31:31;19.50;99.90
56869;DHT22;42754;0.000;0.000;2022-07-10T12:34:00;19.30;99.90
56869;DHT22;42754;0.000;0.000;2022-07-10T12:36:52;19.10;99.90
56869;DHT22;42754;0.000;0.000;2022-07-10T12:39:22;19.10;99.90
56869;DHT22;42754;0.000;0.000;2022-07-10T12:41:58;19.30;99.90
56869;DHT22;42754;0.000;0.000;2022-07-10T12:44:31;19.30;99.90
56869;DHT22;42754;0.000;0.000;2022-07-10T12:47:05;19.40;99.90
56869;DHT22;42754;0.000;0.000;2022-07-10T12:49:54;19.30;99.90
56869;DHT22;42754;0.000;0.000;2022-07-10T12:52:32;19.30;99.90
56869;DHT22;42754;0.000;0.000;2022-07-10T12:55:18;19.30;99.90
56869;DHT22;42754;0.000;0.000;2022-07-10T13:00:45;19.40;99.90
56869;DHT22;42754;0.000;0.000;2022-07-10T13:03:19;19.40;99.90
56869;DHT22;42754;0.000;0.000;2022-07-10T13:05:45;19.50;99.90
56869;DHT22;42754;0.000;0.000;2022-07-10T13:08:15;19.60;99.90
56869;DHT22;42754;0.000;0.000;2022-07-10T13:10:52;19.50;99.90
56869;DHT22;42754;0.000;0.000;2022-07-10T13:13:18;19.70;99.90
56869;DHT22;42754;0.000;0.000;2022-07-10T13:15:44;19.70;99.90
56869;DHT22;42754;0.000;0.000;2022-07-10T13:18:17;19.90;99.90
56869;DHT22;42754;0.000;0.000;2022-07-10T13:21:13;20.10;99.90
56869;DHT22;42754;0.000;0.000;2022-07-10T13:23:38;20.30;99.90
56869;DHT22;42754;0.000;0.000;2022-07-10T13:26:05;20.40;99.90
56869;DHT22;42754;0.000;0.000;2022-07-10T13:28:34;20.40;99.90
56869;DHT22;42754;0.000;0.000;2022-07-10T13:31:00;20.50;99.90
56869;DHT22;42754;0.000;0.000;2022-07-10T13:33:26;20.50;99.90
56869;DHT22;42754;0.000;0.000;2022-07-10T13:35:53;20.50;99.90
56869;DHT22;42754;0.000;0.000;2022-07-10T13:38:19;20.60;99.90
56869;DHT22;42754;0.000;0.000;2022-07-10T13:40:46;20.70;99.90
56869;DHT22;42754;0.000;0.000;2022-07-10T13:43:14;20.50;99.90
56869;DHT22;42754;0.000;0.000;2022-07-10T13:45:42;20.70;99.90
56869;DHT22;42754;0.000;0.000;2022-07-10T13:48:11;20.70;99.90
56869;DHT22;42754;0.000;0.000;2022-07-10T13:50:38;20.80;99.90
56869;DHT22;42754;0.000;0.000;2022-07-10T13:53:04;20.80;99.90
56869;DHT22;42754;0.000;0.000;2022-07-10T13:55:29;20.80;99.90
56869;DHT22;42754;0.000;0.000;2022-07-10T13:57:55;20.80;99.90
56869;DHT22;42754;0.000;0.000;2022-07-10T14:00:21;21.00;99.90
56869;DHT22;42754;0.000;0.000;2022-07-10T14:02:47;21.10;99.90
56869;DHT22;42754;0.000;0.000;2022-07-10T14:05:12;21.00;99.90
56869;DHT22;42754;0.000;0.000;2022-07-10T14:07:38;21.10;99.90
56869;DHT22;42754;0.000;0.000;2022-07-10T14:10:05;21.00;99.90
56869;DHT22;42754;0.000;0.000;2022-07-10T14:12:31;21.00;99.90
56869;DHT22;42754;0.000;0.000;2022-07-10T14:14:57;21.00;99.90
56869;DHT22;42754;0.000;0.000;2022-07-10T14:17:23;20.90;99.90
56869;DHT22;42754;0.000;0.000;2022-07-10T14:19:49;21.10;99.70
56869;DHT22;42754;0.000;0.000;2022-07-10T14:22:15;21.20;99.80
56869;DHT22;42754;0.000;0.000;2022-07-10T14:24:41;21.30;99.00
56869;DHT22;42754;0.000;0.000;2022-07-10T14:27:07;21.10;98.50
56869;DHT22;42754;0.000;0.000;2022-07-10T14:29:33;20.90;98.50
56869;DHT22;42754;0.000;0.000;2022-07-10T14:31:58;20.90;99.00
56869;DHT22;42754;0.000;0.000;2022-07-10T14:34:24;21.00;99.10
56869;DHT22;42754;0.000;0.000;2022-07-10T14:36:51;21.00;98.70
56869;DHT22;42754;0.000;0.000;2022-07-10T14:39:16;21.10;98.80
56869;DHT22;42754;0.000;0.000;2022-07-10T14:41:42;21.30;99.10
56869;DHT22;42754;0.000;0.000;2022-07-10T14:44:09;21.40;98.30
56869;DHT22;42754;0.000;0.000;2022-07-10T14:46:34;21.40;98.60
56869;DHT22;42754;0.000;0.000;2022-07-10T14:49:00;21.40;98.60
56869;DHT22;42754;0.000;0.000;2022-07-10T14:51:26;21.30;97.90
56869;DHT22;42754;0.000;0.000;2022-07-10T14:53:52;21.30;98.20
56869;DHT22;42754;0.000;0.000;2022-07-10T14:56:19;21.10;97.40
56869;DHT22;42754;0.000;0.000;2022-07-10T14:58:45;21.00;98.00
56869;DHT22;42754;0.000;0.000;2022-07-10T15:01:11;21.00;98.10
56869;DHT22;42754;0.000;0.000;2022-07-10T15:03:37;21.10;98.30
56869;DHT22;42754;0.000;0.000;2022-07-10T15:06:03;21.20;99.30
56869;DHT22;42754;0.000;0.000;2022-07-10T15:08:29;21.10;98.20
56869;DHT22;42754;0.000;0.000;2022-07-10T15:10:54;21.10;98.40
56869;DHT22;42754;0.000;0.000;2022-07-10T15:13:20;21.30;98.20
56869;DHT22;42754;0.000;0.000;2022-07-10T15:15:46;21.60;98.10
56869;DHT22;42754;0.000;0.000;2022-07-10T15:18:14;21.70;97.30
56869;DHT22;42754;0.000;0.000;2022-07-10T15:20:40;21.80;98.00
56869;DHT22;42754;0.000;0.000;2022-07-10T15:23:05;21.70;98.00
56869;DHT22;42754;0.000;0.000;2022-07-10T15:25:31;21.70;97.70
56869;DHT22;42754;0.000;0.000;2022-07-10T15:27:57;21.70;97.90
56869;DHT22;42754;0.000;0.000;2022-07-10T15:30:22;21.50;97.80
56869;DHT22;42754;0.000;0.000;2022-07-10T15:32:48;21.40;97.80
56869;DHT22;42754;0.000;0.000;2022-07-10T15:35:14;21.40;98.00
56869;DHT22;42754;0.000;0.000;2022-07-10T15:37:40;21.50;98.10
56869;DHT22;42754;0.000;0.000;2022-07-10T15:40:06;21.60;98.20
56869;DHT22;42754;0.000;0.000;2022-07-10T15:42:32;21.50;97.70
56869;DHT22;42754;0.000;0.000;2022-07-10T15:44:58;21.50;97.80
56869;DHT22;42754;0.000;0.000;2022-07-10T15:47:24;21.50;97.50
56869;DHT22;42754;0.000;0.000;2022-07-10T15:49:50;21.60;98.40
56869;DHT22;42754;0.000;0.000;2022-07-10T15:52:15;21.60;97.90
56869;DHT22;42754;0.000;0.000;2022-07-10T15:54:41;21.40;97.80
56869;DHT22;42754;0.000;0.000;2022-07-10T15:57:07;21.30;98.20
56869;DHT22;42754;0.000;0.000;2022-07-10T15:59:33;21.20;98.30
56869;DHT22;42754;0.000;0.000;2022-07-10T16:02:00;21.30;98.80
56869;DHT22;42754;0.000;0.000;2022-07-10T16:04:26;21.30;98.30
56869;DHT22;42754;0.000;0.000;2022-07-10T16:06:52;21.20;98.40
56869;DHT22;42754;0.000;0.000;2022-07-10T16:09:19;21.30;98.30
56869;DHT22;42754;0.000;0.000;2022-07-10T16:11:45;21.30;98.70
56869;DHT22;42754;0.000;0.000;2022-07-10T16:14:11;21.30;98.50
56869;DHT22;42754;0.000;0.000;2022-07-10T16:16:37;21.20;99.10
56869;DHT22;42754;0.000;0.000;2022-07-10T16:19:03;21.20;98.80
56869;DHT22;42754;0.000;0.000;2022-07-10T16:21:29;21.20;99.00
56869;DHT22;42754;0.000;0.000;2022-07-10T16:23:55;21.10;99.00
56869;DHT22;42754;0.000;0.000;2022-07-10T16:26:21;21.10;99.00